WetterOnline ( http://www.wetteronline.de )

Wetter aktuell Sylt

Aktuelles Wetter: List/Sylt (29m)

6-stündlich | Neueste Meldungen
Ortszeit Temperatur Wetter
So, 28.05. 8:00 16.5° C bedeckt
So, 28.05. 2:00 19.0° C wolkenlos
Sa, 27.05. 20:00 22.2° C wolkenlos
Sa, 27.05. 14:00 22.9° C wolkenlos
Ortszeit Temperatur Wetter
So, 28.05. 10:30 17.9° C fast wolkenlos
So, 28.05. 10:00 18.5° C leicht bewölkt
So, 28.05. 9:30 16.8° C wolkig
So, 28.05. 9:00 16.8° C bedeckt
So, 28.05. 8:30 17.2° C bedeckt
So, 28.05. 8:00 16.5° C bedeckt
Ortszeit Relative Feuchte Sichtweite
So, 28.05. 8:00 81% 17 km
So, 28.05. 2:00 75% 35 km
Sa, 27.05. 20:00 63% 8 km
Sa, 27.05. 14:00 56% 12 km
Ortszeit Relative Feuchte Sichtweite
So, 28.05. 10:30 74% 8 km
So, 28.05. 10:00 73% 8 km
So, 28.05. 9:30 78% 12 km
So, 28.05. 9:00 78% 17 km
So, 28.05. 8:30 79% 11 km
So, 28.05. 8:00 81% 17 km
Ortszeit Niederschlagsmenge Niederschlagsart
So, 28.05. 8:00 0,0 l/m2 in 12 Std. -
So, 28.05. 2:00 0,0 l/m2 in 6 Std. -
Sa, 27.05. 20:00 0,0 l/m2 in 12 Std. -
Sa, 27.05. 14:00 0,0 l/m2 in 6 Std. -
Ortszeit Niederschlagsmenge Niederschlagsart
So, 28.05. 10:30 keine Meldung -
So, 28.05. 10:00 0,0 l/m2 in 1 Std. -
So, 28.05. 9:30 keine Meldung -
So, 28.05. 9:00 0,0 l/m2 in 1 Std. -
So, 28.05. 8:30 keine Meldung -
So, 28.05. 8:00 0,0 l/m2 in 1 Std. -
Ortszeit Stärke Spitze Richtung
km/h Bft. km/h Grad Sektor
So, 28.05. 8:00 22 4 43 240° SW
So, 28.05. 2:00 29 5 40 150° SO
Sa, 27.05. 20:00 25 4 36 150° SO
Sa, 27.05. 14:00 29 5 40 170° S
Ortszeit Stärke Spitze Richtung
km/h Bft. km/h Grad Sektor
So, 28.05. 10:30 22 4 33 240° SW
So, 28.05. 10:00 25 4 36 230° SW
So, 28.05. 9:30 24 4 35 240° SW
So, 28.05. 9:00 19 3 30 250° W
So, 28.05. 8:30 20 4 26 220° SW
So, 28.05. 8:00 22 4 32 240° SW
Ortszeit Untergrenze Bedeckung Gattung
total tief tief mittel hoch
So, 28.05. 8:00 4200 m 8/8 8/8 - - -
So, 28.05. 2:00 - 0/8 0/8 - - -
Sa, 27.05. 20:00 - 0/8 0/8 - - -
Sa, 27.05. 14:00 - 0/8 0/8 - - -
Ortszeit Bedeckungsgrad in Achtel und Wolkenuntergrenze
So, 28.05. 10:30 1(5100m)
So, 28.05. 10:00 4(5100m)
So, 28.05. 9:30 2(3000m) 5(5100m) 5(6600m)
So, 28.05. 9:00 3(3000m) 8(5100m) 8(6000m)
So, 28.05. 8:30 8(5100m) 8(6300m)
So, 28.05. 8:00 8(4200m) 8(5400m)
Ortszeit Luftdruck NN (hPa) Tendenz (hPa in 3 Std.)
So, 28.05. 8:00 1015 - 0,2
So, 28.05. 2:00 1016 - 0,8
Sa, 27.05. 20:00 1017 - 1,7
Sa, 27.05. 14:00 1021 - 1,1
Ortszeit Luftdruck NN (hPa) Tendenz (hPa in 3 Std.)
So, 28.05. 10:30 1016 + 0,6
So, 28.05. 10:00 1016 + 0,7
So, 28.05. 9:30 1016 + 0,5
So, 28.05. 9:00 1015 + 0,3
So, 28.05. 8:30 1015 - 0,3
So, 28.05. 8:00 1015 - 0,2
Ortszeit Schneehöhe (cm)
So, 28.05. 8:00 -
So, 28.05. 2:00 -
Sa, 27.05. 20:00 -
Sa, 27.05. 14:00 -
Ortszeit Schneehöhe (cm)
So, 28.05. 10:30 -
So, 28.05. 10:00 -
So, 28.05. 9:30 -
So, 28.05. 9:00 -
So, 28.05. 8:30 -
So, 28.05. 8:00 -
Link zu dieser Seite / Seite empfehlen

Das Wetter in ...